Time;durP1;ratioP1;P1;durP2;ratioP2;P2;SDS_P1;SDS_P2;PMS_P1;PMS_P2;Temp;Humidity;BMP_temperature;BMP_pressure;BME280_temperature;BME280_humidity;BME280_pressure;Samples;Min_cycle;Max_cycle;Signal;HPM_P1;HPM_P2
2021/12/06 00:02:24;;;;;;;6.53;5.07;;;4.70;99.90;;;;;;10441220;28;20233;-73
2021/12/06 00:07:25;;;;;;;7.70;6.13;;;4.60;99.90;;;;;;10448750;28;20228;-73
2021/12/06 00:12:28;;;;;;;6.57;5.40;;;4.50;99.90;;;;;;10438867;28;20223;-72
2021/12/06 00:17:29;;;;;;;6.53;4.90;;;4.40;99.90;;;;;;10438485;28;20228;-73
2021/12/06 00:22:32;;;;;;;6.00;5.00;;;4.30;99.90;;;;;;10430961;28;20917;-74
2021/12/06 00:27:33;;;;;;;7.43;5.40;;;4.20;99.90;;;;;;10434158;28;20711;-72
2021/12/06 00:32:33;;;;;;;7.93;5.97;;;4.10;99.90;;;;;;10422524;28;20223;-73
2021/12/06 00:37:42;;;;;;;9.57;5.47;;;4.10;99.90;;;;;;10429814;28;20643;-72
2021/12/06 00:42:43;;;;;;;6.90;5.23;;;4.10;99.90;;;;;;10446558;28;20212;-72
2021/12/06 00:47:43;;;;;;;6.80;5.37;;;4.00;99.90;;;;;;10434637;28;20219;-73
2021/12/06 00:52:45;;;;;;;8.57;5.67;;;4.00;99.90;;;;;;10439070;28;20228;-73
2021/12/06 00:57:47;;;;;;;5.83;5.20;;;3.90;99.90;;;;;;10433935;28;20230;-72
2021/12/06 01:02:48;;;;;;;8.33;5.90;;;3.90;99.90;;;;;;10437661;28;20695;-74
2021/12/06 01:07:50;;;;;;;6.53;5.23;;;3.80;99.90;;;;;;10438004;28;20220;-72
2021/12/06 01:12:52;;;;;;;6.97;5.57;;;3.70;99.90;;;;;;10442335;28;20224;-73
2021/12/06 01:17:54;;;;;;;13.47;8.13;;;3.60;99.90;;;;;;10436834;28;20223;-73
2021/12/06 01:23:03;;;;;;;14.90;10.13;;;3.60;99.90;;;;;;10440026;28;20227;-72
2021/12/06 01:34:06;;;;;;;18.37;12.47;;;3.50;99.90;;;;;;10423108;28;20578;-72
2021/12/06 01:39:18;;;;;;;17.40;11.77;;;3.50;99.90;;;;;;10446985;28;20235;-72
2021/12/06 01:44:21;;;;;;;17.00;11.03;;;3.60;99.90;;;;;;10446914;28;20283;-73
2021/12/06 01:49:24;;;;;;;15.80;11.40;;;3.60;99.90;;;;;;10444657;28;20216;-72
2021/12/06 01:54:28;;;;;;;12.20;8.90;;;3.70;99.90;;;;;;10438320;28;20220;-72
2021/12/06 01:59:29;;;;;;;12.80;9.27;;;3.60;99.90;;;;;;10433766;28;20269;-72
2021/12/06 02:04:32;;;;;;;11.43;7.97;;;3.60;99.90;;;;;;10447190;28;20723;-72
2021/12/06 02:09:33;;;;;;;8.57;7.00;;;3.50;99.90;;;;;;10439198;28;20338;-73
2021/12/06 02:14:46;;;;;;;8.07;6.23;;;3.50;99.90;;;;;;10454275;28;20829;-72
2021/12/06 02:19:55;;;;;;;7.80;6.10;;;3.40;99.90;;;;;;10439220;28;20212;-73
2021/12/06 02:24:57;;;;;;;7.07;5.80;;;3.50;99.90;;;;;;10450115;28;20212;-72
2021/12/06 02:30:07;;;;;;;10.00;6.47;;;3.50;99.90;;;;;;10448174;28;20330;-71
2021/12/06 02:35:15;;;;;;;7.97;6.47;;;3.50;99.90;;;;;;10434004;28;20244;-72
2021/12/06 02:40:20;;;;;;;7.70;5.90;;;3.30;99.90;;;;;;10447731;28;20180;-72
2021/12/06 02:45:33;;;;;;;7.80;6.10;;;3.10;99.90;;;;;;10430936;28;20181;-76
2021/12/06 02:51:05;;;;;;;9.23;6.77;;;3.00;99.90;;;;;;10456013;28;20220;-74
2021/12/06 02:56:18;;;;;;;8.10;6.50;;;2.80;99.90;;;;;;10410853;28;20312;-75
2021/12/06 03:01:29;;;;;;;8.97;6.07;;;2.80;99.90;;;;;;10451110;28;20692;-73
2021/12/06 03:06:32;;;;;;;8.27;6.50;;;2.70;99.90;;;;;;10434504;28;20224;-73
2021/12/06 03:11:49;;;;;;;8.97;6.63;;;2.60;99.90;;;;;;10436035;28;20224;-73
2021/12/06 03:16:52;;;;;;;10.43;6.90;;;2.40;99.90;;;;;;10447430;28;20580;-72
2021/12/06 03:21:53;;;;;;;8.50;6.80;;;2.40;99.90;;;;;;10452786;28;20565;-73
2021/12/06 03:26:54;;;;;;;9.57;7.10;;;2.30;99.90;;;;;;10448045;28;20225;-73
2021/12/06 03:31:55;;;;;;;9.77;6.93;;;2.20;99.90;;;;;;10444225;28;20715;-73
2021/12/06 03:37:01;;;;;;;8.30;6.60;;;2.20;99.90;;;;;;10445570;28;20204;-73
2021/12/06 03:42:08;;;;;;;7.37;6.10;;;2.10;99.90;;;;;;10453225;28;20223;-74
2021/12/06 03:47:18;;;;;;;9.17;6.93;;;2.10;99.90;;;;;;10436506;28;20227;-73
2021/12/06 03:52:20;;;;;;;10.07;7.60;;;2.10;99.90;;;;;;10451069;28;20396;-74
2021/12/06 03:57:21;;;;;;;9.40;6.97;;;2.00;99.90;;;;;;10456715;28;20216;-74
2021/12/06 04:02:27;;;;;;;8.43;6.30;;;2.00;99.90;;;;;;10436273;28;20839;-74
2021/12/06 04:07:30;;;;;;;9.33;7.07;;;2.00;99.90;;;;;;10446571;28;20304;-75
2021/12/06 04:12:35;;;;;;;10.97;8.20;;;2.00;99.90;;;;;;10434012;28;20228;-73
2021/12/06 04:17:38;;;;;;;13.70;9.13;;;1.90;99.90;;;;;;10430755;28;20816;-75
2021/12/06 04:22:40;;;;;;;12.10;8.30;;;1.90;99.90;;;;;;10447720;28;20223;-73
2021/12/06 04:27:42;;;;;;;11.77;8.80;;;1.80;99.90;;;;;;10454150;28;20274;-73
2021/12/06 04:32:42;;;;;;;13.20;9.43;;;1.80;99.90;;;;;;10443803;28;20224;-72
2021/12/06 04:37:44;;;;;;;10.03;8.73;;;1.80;99.90;;;;;;10427918;28;20216;-72
2021/12/06 04:42:48;;;;;;;10.07;8.17;;;1.90;99.90;;;;;;10422753;28;20226;-74
2021/12/06 04:47:50;;;;;;;10.83;9.03;;;2.00;99.90;;;;;;10445144;28;20220;-73
2021/12/06 04:52:58;;;;;;;9.37;7.67;;;2.10;99.90;;;;;;10446993;28;20283;-74
2021/12/06 04:58:11;;;;;;;9.73;8.20;;;2.20;99.90;;;;;;10453095;28;20704;-74
2021/12/06 05:03:14;;;;;;;8.73;7.80;;;2.30;99.90;;;;;;10447362;28;20219;-73
2021/12/06 05:08:28;;;;;;;11.17;7.40;;;2.50;99.90;;;;;;10444804;28;20707;-74
2021/12/06 05:13:35;;;;;;;11.73;8.73;;;2.50;99.90;;;;;;10425121;28;20232;-74
2021/12/06 05:18:36;;;;;;;9.17;7.83;;;2.50;99.90;;;;;;10436674;28;20251;-73
2021/12/06 05:23:37;;;;;;;10.20;7.87;;;2.50;99.90;;;;;;10432945;28;20675;-73
2021/12/06 05:28:42;;;;;;;11.13;7.23;;;2.60;99.90;;;;;;10448094;28;20292;-74
2021/12/06 05:33:52;;;;;;;9.57;7.07;;;2.70;99.90;;;;;;10433622;28;21499;-74
2021/12/06 05:38:54;;;;;;;8.70;7.47;;;2.70;99.90;;;;;;10451671;28;20584;-74
2021/12/06 05:43:55;;;;;;;9.30;8.00;;;2.80;99.90;;;;;;10457700;28;20220;-73
2021/12/06 05:48:56;;;;;;;8.93;7.30;;;2.90;99.90;;;;;;10459578;28;20594;-73
2021/12/06 05:53:56;;;;;;;17.73;11.67;;;2.90;99.90;;;;;;10454884;28;20216;-74
2021/12/06 05:58:57;;;;;;;9.90;8.40;;;3.00;99.90;;;;;;10464359;28;20276;-74
2021/12/06 06:04:01;;;;;;;9.83;7.43;;;3.00;99.90;;;;;;10463979;28;20227;-74
2021/12/06 06:09:04;;;;;;;9.53;6.93;;;3.20;99.90;;;;;;10462277;28;20269;-74
2021/12/06 06:14:05;;;;;;;9.80;7.37;;;3.20;99.90;;;;;;10463650;28;20616;-73
2021/12/06 06:19:06;;;;;;;9.23;7.23;;;3.20;99.90;;;;;;10464220;28;20638;-72
2021/12/06 06:24:07;;;;;;;10.10;7.47;;;3.30;99.90;;;;;;10457974;28;20227;-73
2021/12/06 06:29:08;;;;;;;12.70;9.13;;;3.30;99.90;;;;;;10453228;28;20243;-74
2021/12/06 06:34:10;;;;;;;9.03;7.73;;;3.30;99.90;;;;;;10460505;28;20297;-74
2021/12/06 06:39:10;;;;;;;11.33;8.60;;;3.30;99.90;;;;;;10461846;28;20234;-74
2021/12/06 06:44:11;;;;;;;9.47;8.40;;;3.30;99.90;;;;;;10464689;28;20262;-73
2021/12/06 06:49:13;;;;;;;9.00;7.57;;;3.30;99.90;;;;;;10460003;28;20310;-75
2021/12/06 06:54:15;;;;;;;9.43;7.73;;;3.30;99.90;;;;;;10453120;28;20223;-74
2021/12/06 06:59:18;;;;;;;9.30;7.73;;;3.40;99.90;;;;;;10463103;28;20223;-74
2021/12/06 07:04:19;;;;;;;10.77;8.30;;;3.40;99.90;;;;;;10443189;28;20228;-75
2021/12/06 07:09:20;;;;;;;10.33;8.17;;;3.40;99.90;;;;;;10456769;28;20470;-75
2021/12/06 07:14:21;;;;;;;10.20;7.53;;;3.40;99.90;;;;;;10458842;28;20762;-75
2021/12/06 07:19:21;;;;;;;8.97;7.57;;;3.40;99.90;;;;;;10457229;28;20224;-76
2021/12/06 07:24:22;;;;;;;9.10;7.27;;;3.40;99.90;;;;;;10446010;28;20311;-74
2021/12/06 07:29:23;;;;;;;10.13;7.40;;;3.40;99.90;;;;;;10463782;28;20223;-74
2021/12/06 07:34:24;;;;;;;9.67;8.33;;;3.40;99.90;;;;;;10466975;28;20257;-73
2021/12/06 07:39:27;;;;;;;13.07;8.47;;;3.40;99.90;;;;;;10462494;28;20235;-74
2021/12/06 07:44:28;;;;;;;11.30;8.47;;;3.40;99.90;;;;;;10458307;28;20235;-73
2021/12/06 07:49:29;;;;;;;10.27;8.60;;;3.40;99.90;;;;;;10455061;28;20666;-73
2021/12/06 07:54:30;;;;;;;10.47;9.10;;;3.50;99.90;;;;;;10472770;28;20588;-73
2021/12/06 07:59:31;;;;;;;11.67;8.97;;;3.60;99.90;;;;;;10466429;28;20222;-74
2021/12/06 08:04:32;;;;;;;12.83;9.90;;;3.70;99.90;;;;;;10469053;28;20231;-73
2021/12/06 08:09:33;;;;;;;10.97;9.17;;;3.90;99.90;;;;;;10469146;28;20287;-73
2021/12/06 08:14:34;;;;;;;9.90;7.67;;;4.00;99.90;;;;;;10471894;28;20227;-73
2021/12/06 08:19:36;;;;;;;10.13;8.00;;;4.00;99.90;;;;;;10475358;28;20211;-72
2021/12/06 08:24:37;;;;;;;8.83;7.77;;;4.10;99.90;;;;;;10466992;28;20261;-72
2021/12/06 08:29:39;;;;;;;11.73;7.57;;;4.20;99.90;;;;;;10442285;28;20261;-74
2021/12/06 08:34:41;;;;;;;10.27;8.20;;;4.20;99.90;;;;;;10443358;28;20223;-74
2021/12/06 08:39:42;;;;;;;15.97;8.70;;;4.40;99.90;;;;;;10450178;28;20668;-72
2021/12/06 08:44:42;;;;;;;9.33;7.27;;;4.80;99.90;;;;;;10451686;28;20306;-72
2021/12/06 08:49:44;;;;;;;9.70;7.73;;;5.10;99.90;;;;;;10453275;28;20215;-74
2021/12/06 08:54:48;;;;;;;9.73;7.47;;;5.20;99.90;;;;;;10432939;28;20281;-72
2021/12/06 08:59:49;;;;;;;10.40;7.67;;;5.30;99.90;;;;;;10452346;28;20222;-73
2021/12/06 09:04:50;;;;;;;8.57;7.67;;;5.50;99.90;;;;;;10454235;28;20226;-73
2021/12/06 09:09:55;;;;;;;9.17;7.07;;;5.60;99.90;;;;;;10443923;28;20215;-72
2021/12/06 09:15:00;;;;;;;9.10;7.77;;;6.10;99.90;;;;;;10444102;28;20605;-73
2021/12/06 09:20:01;;;;;;;11.40;8.17;;;6.60;99.90;;;;;;10450421;28;20335;-72
2021/12/06 09:25:04;;;;;;;9.57;7.20;;;7.20;99.90;;;;;;10450842;28;20364;-73
2021/12/06 09:30:13;;;;;;;7.17;5.47;;;7.90;99.90;;;;;;10457626;28;20218;-73
2021/12/06 09:35:19;;;;;;;6.63;5.40;;;11.50;99.90;;;;;;10450210;28;20679;-73
2021/12/06 09:40:22;;;;;;;6.40;5.60;;;15.80;98.90;;;;;;10449663;28;20179;-75
2021/12/06 09:45:27;;;;;;;7.77;5.93;;;19.40;70.80;;;;;;10452195;28;20821;-73
2021/12/06 09:50:39;;;;;;;7.20;6.20;;;20.80;54.60;;;;;;10449794;28;20846;-72
2021/12/06 09:55:42;;;;;;;6.80;5.67;;;20.80;52.60;;;;;;10444609;28;20295;-72
2021/12/06 10:00:48;;;;;;;6.73;5.60;;;21.80;49.80;;;;;;10447281;28;20220;-72
2021/12/06 10:05:49;;;;;;;6.30;5.70;;;22.70;47.00;;;;;;10451953;28;20646;-72
2021/12/06 10:10:50;;;;;;;7.33;6.43;;;22.80;46.00;;;;;;10451158;28;20783;-73
2021/12/06 10:15:52;;;;;;;7.20;6.47;;;23.30;44.40;;;;;;10454810;28;20228;-72
2021/12/06 10:20:53;;;;;;;6.23;5.63;;;23.70;43.40;;;;;;10457442;28;20700;-73
2021/12/06 10:25:56;;;;;;;5.83;5.20;;;24.30;42.20;;;;;;10458980;28;20315;-72
2021/12/06 10:31:01;;;;;;;7.17;5.80;;;24.80;40.40;;;;;;10451232;28;20221;-72
2021/12/06 10:36:11;;;;;;;9.60;6.40;;;24.50;40.20;;;;;;10459795;28;20233;-73
2021/12/06 10:41:15;;;;;;;5.77;5.23;;;22.80;43.00;;;;;;10457699;28;20678;-73
2021/12/06 10:46:17;;;;;;;6.50;5.87;;;21.00;45.00;;;;;;10459427;28;20264;-73
2021/12/06 10:51:19;;;;;;;9.10;7.90;;;16.80;53.80;;;;;;10459067;28;20219;-73
2021/12/06 10:56:25;;;;;;;11.43;10.20;;;13.30;63.70;;;;;;10460279;28;20689;-72
2021/12/06 11:01:32;;;;;;;12.17;10.87;;;10.90;74.00;;;;;;10440043;28;20217;-72
2021/12/06 11:06:41;;;;;;;13.07;11.77;;;9.60;84.10;;;;;;10458297;28;20579;-74
2021/12/06 11:11:45;;;;;;;12.87;11.23;;;9.10;90.40;;;;;;10455328;28;20229;-73
2021/12/06 11:16:55;;;;;;;11.53;10.40;;;8.80;94.90;;;;;;10456210;28;20243;-73
2021/12/06 11:21:59;;;;;;;13.17;10.00;;;9.20;99.20;;;;;;10446391;28;20222;-73
2021/12/06 11:27:06;;;;;;;13.87;10.23;;;10.00;99.90;;;;;;10465453;28;20218;-73
2021/12/06 11:32:17;;;;;;;12.70;10.53;;;10.50;99.20;;;;;;10454081;28;20240;-73
2021/12/06 11:37:23;;;;;;;12.63;9.87;;;10.40;99.90;;;;;;10454410;28;20586;-73
2021/12/06 11:42:24;;;;;;;13.33;9.93;;;10.40;99.90;;;;;;10445585;28;20218;-73
2021/12/06 11:47:25;;;;;;;13.07;11.00;;;10.30;99.90;;;;;;10453983;28;20249;-72
2021/12/06 11:52:31;;;;;;;15.37;11.00;;;10.00;99.90;;;;;;10445886;28;20627;-72
2021/12/06 11:57:38;;;;;;;14.60;12.00;;;9.90;99.90;;;;;;10465703;28;20763;-72
2021/12/06 12:02:44;;;;;;;16.77;14.13;;;9.40;99.90;;;;;;10456312;28;20261;-72
2021/12/06 12:07:57;;;;;;;21.87;15.47;;;8.90;99.90;;;;;;10458633;28;20218;-73
2021/12/06 12:12:59;;;;;;;22.17;15.50;;;8.30;99.90;;;;;;10463873;28;20225;-72
2021/12/06 12:18:00;;;;;;;20.83;15.33;;;8.00;99.90;;;;;;10449520;28;20220;-72
2021/12/06 12:23:07;;;;;;;23.70;16.33;;;7.80;99.90;;;;;;10460615;28;20279;-72
2021/12/06 12:28:32;;;;;;;23.50;16.47;;;7.60;99.90;;;;;;10463677;28;20705;-72
2021/12/06 12:33:32;;;;;;;21.90;16.70;;;7.50;99.90;;;;;;10450344;28;20586;-73
2021/12/06 12:38:36;;;;;;;17.97;14.33;;;7.20;99.90;;;;;;10455618;28;20208;-73
2021/12/06 12:43:47;;;;;;;18.63;15.07;;;6.90;99.90;;;;;;10441223;28;20677;-74
2021/12/06 12:48:49;;;;;;;19.67;14.70;;;6.70;99.90;;;;;;10456664;28;20223;-73
2021/12/06 12:54:05;;;;;;;19.90;14.10;;;6.60;99.90;;;;;;10446968;28;20667;-74
2021/12/06 12:59:42;;;;;;;17.63;14.93;;;6.60;99.90;;;;;;10454847;28;20302;-73
2021/12/06 13:04:58;;;;;;;18.63;14.87;;;6.70;99.90;;;;;;10432533;28;20223;-73
2021/12/06 13:10:29;;;;;;;19.97;15.37;;;6.60;99.90;;;;;;10418095;28;20247;-73
2021/12/06 13:16:10;;;;;;;20.27;15.00;;;6.60;99.90;;;;;;10429772;28;20626;-73
2021/12/06 13:22:07;;;;;;;26.00;16.10;;;6.60;99.90;;;;;;10448488;28;20740;-73
2021/12/06 13:27:31;;;;;;;21.50;15.97;;;6.60;99.90;;;;;;10337962;28;20247;-73
2021/12/06 13:32:35;;;;;;;24.40;16.87;;;6.50;99.90;;;;;;10448925;28;20242;-72
2021/12/06 13:37:39;;;;;;;22.33;16.63;;;6.30;99.90;;;;;;10454951;28;20596;-73
2021/12/06 13:42:44;;;;;;;23.40;17.13;;;6.10;99.90;;;;;;10456184;28;20705;-71
2021/12/06 13:48:13;;;;;;;24.87;18.60;;;6.30;99.90;;;;;;10441725;28;20647;-73
2021/12/06 13:53:33;;;;;;;26.83;19.97;;;6.40;99.90;;;;;;10451912;28;20286;-72
2021/12/06 13:58:35;;;;;;;28.17;20.50;;;6.40;99.90;;;;;;10454436;28;20222;-72
2021/12/06 14:03:43;;;;;;;31.57;21.80;;;6.40;99.90;;;;;;10461666;28;20220;-73
2021/12/06 14:08:46;;;;;;;26.60;20.00;;;6.50;99.90;;;;;;10463069;28;20230;-72
2021/12/06 14:13:48;;;;;;;26.00;20.03;;;6.50;99.90;;;;;;10460993;28;20227;-72
2021/12/06 14:18:51;;;;;;;27.93;19.93;;;6.50;99.90;;;;;;10460996;28;20220;-73
2021/12/06 14:23:52;;;;;;;24.27;18.37;;;6.50;99.90;;;;;;10459624;28;20232;-73
2021/12/06 14:28:53;;;;;;;27.20;19.10;;;6.60;99.90;;;;;;10462520;28;20299;-73
2021/12/06 14:34:02;;;;;;;26.60;19.67;;;6.70;99.90;;;;;;10462522;28;20336;-72
2021/12/06 14:39:20;;;;;;;25.03;18.73;;;6.80;99.90;;;;;;10444168;28;20350;-72
2021/12/06 14:44:37;;;;;;;28.20;20.43;;;6.70;99.90;;;;;;10442867;28;20271;-73
2021/12/06 14:49:41;;;;;;;26.00;19.50;;;6.60;99.90;;;;;;10453510;28;20216;-74
2021/12/06 15:00:38;;;;;;;33.53;23.57;;;6.50;99.90;;;;;;10461160;28;20238;-73
2021/12/06 15:05:54;;;;;;;33.43;22.43;;;6.30;99.90;;;;;;10426747;28;20224;-72
2021/12/06 15:11:04;;;;;;;33.10;23.87;;;6.30;99.90;;;;;;10454168;28;20231;-72
2021/12/06 15:16:08;;;;;;;31.80;23.30;;;6.20;99.90;;;;;;10459456;28;20760;-73
2021/12/06 15:21:12;;;;;;;30.23;22.33;;;6.20;99.90;;;;;;10459389;28;20642;-72
2021/12/06 15:26:20;;;;;;;30.93;22.57;;;6.20;99.90;;;;;;10457445;28;20228;-73
2021/12/06 15:31:26;;;;;;;29.30;21.13;;;6.10;99.90;;;;;;10457048;28;20306;-73
2021/12/06 15:36:28;;;;;;;26.77;19.27;;;6.10;99.90;;;;;;10448198;28;20216;-72
2021/12/06 15:41:36;;;;;;;26.87;19.80;;;6.00;99.90;;;;;;10441447;28;20252;-72
2021/12/06 15:46:47;;;;;;;28.87;19.87;;;6.00;99.90;;;;;;10464362;28;20224;-74
2021/12/06 15:51:57;;;;;;;29.90;18.97;;;6.00;99.90;;;;;;10467876;28;20350;-73
2021/12/06 15:57:01;;;;;;;25.07;18.60;;;6.00;99.90;;;;;;10459214;28;20212;-71
2021/12/06 16:02:06;;;;;;;26.43;18.07;;;6.00;99.90;;;;;;10457314;28;20223;-72
2021/12/06 16:07:07;;;;;;;23.57;17.23;;;5.90;99.90;;;;;;10457620;28;20216;-72
2021/12/06 16:12:10;;;;;;;23.93;16.50;;;5.90;99.90;;;;;;10463279;28;20231;-72
2021/12/06 16:17:11;;;;;;;23.57;15.80;;;5.80;99.90;;;;;;10467476;28;20284;-72
2021/12/06 16:22:13;;;;;;;24.47;16.37;;;5.70;99.90;;;;;;10456519;28;20582;-72
2021/12/06 16:27:17;;;;;;;18.50;14.10;;;5.60;99.90;;;;;;10452762;28;20762;-72
2021/12/06 16:32:18;;;;;;;16.90;12.97;;;5.60;99.90;;;;;;10459946;28;20278;-72
2021/12/06 16:37:25;;;;;;;18.83;14.10;;;5.60;99.90;;;;;;10460718;28;20216;-72
2021/12/06 16:42:35;;;;;;;16.70;12.03;;;5.60;99.90;;;;;;10430716;28;20262;-71
2021/12/06 16:47:42;;;;;;;15.50;11.73;;;5.60;99.90;;;;;;10436586;28;20595;-72
2021/12/06 16:52:46;;;;;;;14.97;10.83;;;5.60;99.90;;;;;;10450990;28;20703;-72
2021/12/06 16:57:51;;;;;;;13.77;10.10;;;5.60;99.90;;;;;;10450313;28;20219;-72
2021/12/06 17:02:58;;;;;;;11.80;7.93;;;5.60;99.90;;;;;;10454015;28;20251;-72
2021/12/06 17:08:08;;;;;;;9.40;6.97;;;5.60;99.90;;;;;;10444027;28;20209;-73
2021/12/06 17:13:18;;;;;;;8.83;5.73;;;5.50;99.90;;;;;;10434658;28;20231;-72
2021/12/06 17:18:21;;;;;;;8.57;5.50;;;5.50;99.90;;;;;;10448311;28;20220;-72
2021/12/06 17:23:26;;;;;;;7.90;5.93;;;5.40;99.90;;;;;;10448366;28;20231;-72
2021/12/06 17:28:30;;;;;;;7.93;6.00;;;5.40;99.90;;;;;;10420116;28;20291;-73
2021/12/06 17:33:47;;;;;;;8.13;6.43;;;5.30;99.90;;;;;;10443501;28;20315;-72
2021/12/06 17:38:52;;;;;;;6.87;5.63;;;5.10;99.90;;;;;;10463147;28;20636;-72
2021/12/06 17:44:01;;;;;;;8.47;6.53;;;4.90;99.90;;;;;;10459461;28;20219;-72
2021/12/06 17:49:06;;;;;;;9.67;6.77;;;4.90;99.90;;;;;;10458437;28;20282;-72
2021/12/06 17:54:09;;;;;;;9.83;6.93;;;4.80;99.90;;;;;;10461160;28;20247;-72
2021/12/06 17:59:10;;;;;;;12.67;7.77;;;4.80;99.90;;;;;;10448205;28;20213;-72
2021/12/06 18:04:14;;;;;;;9.23;7.27;;;4.70;99.90;;;;;;10432579;28;20232;-72
2021/12/06 18:09:16;;;;;;;11.47;7.93;;;4.60;99.90;;;;;;10449110;28;20695;-72
2021/12/06 18:14:17;;;;;;;10.07;7.43;;;4.70;99.90;;;;;;10438915;28;20258;-72
2021/12/06 18:19:19;;;;;;;10.20;6.20;;;4.80;99.90;;;;;;10456173;28;20238;-73
2021/12/06 18:24:21;;;;;;;11.30;6.40;;;4.80;99.90;;;;;;10460940;28;20303;-71
2021/12/06 18:29:24;;;;;;;10.37;7.33;;;4.80;99.90;;;;;;10445249;28;20663;-72
2021/12/06 18:34:25;;;;;;;10.50;6.53;;;4.80;99.90;;;;;;10434972;28;20285;-72
2021/12/06 18:39:33;;;;;;;20.17;13.40;;;4.70;99.90;;;;;;10463361;28;20230;-72
2021/12/06 18:44:50;;;;;;;8.20;6.77;;;4.70;99.90;;;;;;10463030;28;20224;-72
2021/12/06 18:49:51;;;;;;;10.43;6.67;;;4.70;99.90;;;;;;10459960;28;20687;-72
2021/12/06 18:54:52;;;;;;;10.53;7.63;;;4.80;99.90;;;;;;10426464;28;20251;-71
2021/12/06 18:59:53;;;;;;;10.47;7.10;;;4.80;99.90;;;;;;10456189;28;20447;-72
2021/12/06 19:04:54;;;;;;;8.50;6.77;;;4.80;99.90;;;;;;10441603;28;20212;-72
2021/12/06 19:09:54;;;;;;;9.17;6.97;;;4.80;99.90;;;;;;10461630;28;20590;-75
2021/12/06 19:14:55;;;;;;;6.53;5.37;;;4.70;99.90;;;;;;10458208;28;20471;-71
2021/12/06 19:19:55;;;;;;;7.33;5.00;;;4.60;99.90;;;;;;10455867;28;20867;-71
2021/12/06 19:24:56;;;;;;;7.50;5.00;;;4.60;99.90;;;;;;10457357;28;20220;-71
2021/12/06 19:29:56;;;;;;;5.20;4.50;;;4.60;99.90;;;;;;10455708;28;20221;-71
2021/12/06 19:34:57;;;;;;;5.57;4.50;;;4.60;99.90;;;;;;10455589;28;20277;-72
2021/12/06 19:39:58;;;;;;;6.33;4.83;;;4.60;99.90;;;;;;10453315;28;20228;-71
2021/12/06 19:44:58;;;;;;;5.80;4.87;;;4.60;99.90;;;;;;10456689;28;20303;-70
2021/12/06 19:49:59;;;;;;;5.43;4.70;;;4.50;99.90;;;;;;10447492;28;20216;-71
2021/12/06 19:55:02;;;;;;;7.43;5.97;;;4.50;99.90;;;;;;10465705;28;20248;-72
2021/12/06 20:00:06;;;;;;;8.20;6.03;;;4.50;99.90;;;;;;10458263;28;20616;-70
2021/12/06 20:05:09;;;;;;;9.40;6.67;;;4.50;99.90;;;;;;10454474;28;20231;-70
2021/12/06 20:10:14;;;;;;;10.83;7.80;;;4.40;99.90;;;;;;10450653;28;20192;-70
2021/12/06 20:15:15;;;;;;;9.77;6.67;;;4.40;99.90;;;;;;10453849;28;20216;-70
2021/12/06 20:20:16;;;;;;;11.27;7.47;;;4.40;99.90;;;;;;10453500;28;20845;-70
2021/12/06 20:25:25;;;;;;;12.10;8.03;;;4.30;99.90;;;;;;10454334;28;20180;-71
2021/12/06 20:30:26;;;;;;;10.83;7.97;;;4.40;99.90;;;;;;10435736;28;20684;-71
2021/12/06 20:35:27;;;;;;;12.53;8.83;;;4.40;99.90;;;;;;10457137;28;20247;-71
2021/12/06 20:40:28;;;;;;;19.80;13.50;;;4.30;99.90;;;;;;10448257;28;20318;-71
2021/12/06 20:45:32;;;;;;;12.67;8.70;;;4.30;99.90;;;;;;10452606;28;20354;-71
2021/12/06 20:50:37;;;;;;;14.93;10.53;;;4.40;99.90;;;;;;10441051;28;20220;-69
2021/12/06 20:55:38;;;;;;;13.93;10.13;;;4.40;99.90;;;;;;10439562;28;20232;-70
2021/12/06 21:00:42;;;;;;;17.47;10.93;;;4.40;99.90;;;;;;10455193;28;20216;-70
2021/12/06 21:05:44;;;;;;;13.43;10.27;;;4.40;99.90;;;;;;10451734;28;20216;-70
2021/12/06 21:10:51;;;;;;;15.33;11.03;;;4.40;99.90;;;;;;10462091;28;20283;-71
2021/12/06 21:21:12;;;;;;;12.80;8.97;;;4.40;99.90;;;;;;10408755;28;20243;-70
2021/12/06 21:26:13;;;;;;;11.40;8.63;;;4.40;99.90;;;;;;10397581;28;20217;-70
2021/12/06 21:31:15;;;;;;;10.57;7.90;;;4.50;99.90;;;;;;10406877;28;20313;-71
2021/12/06 21:36:17;;;;;;;10.53;8.00;;;4.60;99.90;;;;;;10414422;28;20224;-70
2021/12/06 21:41:18;;;;;;;10.60;7.10;;;4.60;99.90;;;;;;10406954;28;20669;-70
2021/12/06 21:46:19;;;;;;;10.43;7.10;;;4.60;99.90;;;;;;10414693;28;20621;-70
2021/12/06 21:51:19;;;;;;;8.10;6.20;;;4.60;99.90;;;;;;10412749;28;20343;-71
2021/12/06 21:56:20;;;;;;;10.27;7.23;;;4.70;99.90;;;;;;10413451;28;20234;-69
2021/12/06 22:01:21;;;;;;;7.97;6.20;;;4.70;99.90;;;;;;10416508;28;20252;-71
2021/12/06 22:06:21;;;;;;;9.13;6.50;;;4.70;99.90;;;;;;10415486;28;20229;-69
2021/12/06 22:11:22;;;;;;;8.23;6.17;;;4.70;99.90;;;;;;10416675;28;20228;-71
2021/12/06 22:16:23;;;;;;;8.13;5.40;;;4.70;99.90;;;;;;10417536;28;20716;-70
2021/12/06 22:21:24;;;;;;;7.60;5.13;;;4.70;99.90;;;;;;10420743;28;20706;-70
2021/12/06 22:26:24;;;;;;;5.70;4.73;;;4.70;99.90;;;;;;10418728;28;20327;-70
2021/12/06 22:31:25;;;;;;;6.63;4.97;;;4.70;99.90;;;;;;10395560;28;20319;-70
2021/12/06 22:36:26;;;;;;;6.37;4.77;;;4.80;99.90;;;;;;10421903;28;20232;-70
2021/12/06 22:41:27;;;;;;;6.33;4.57;;;4.80;99.90;;;;;;10412071;28;20312;-70
2021/12/06 22:46:28;;;;;;;5.80;4.70;;;4.80;99.90;;;;;;10424248;28;20323;-69
2021/12/06 22:51:30;;;;;;;5.87;4.73;;;4.80;99.90;;;;;;10419566;28;20239;-70
2021/12/06 22:56:30;;;;;;;6.63;4.47;;;4.80;99.90;;;;;;10404252;28;20260;-71
2021/12/06 23:01:33;;;;;;;6.40;4.83;;;4.70;99.90;;;;;;10423756;28;20645;-69
2021/12/06 23:06:37;;;;;;;5.83;4.07;;;4.70;99.90;;;;;;10421953;28;20220;-68
2021/12/06 23:11:40;;;;;;;4.53;3.90;;;4.60;99.90;;;;;;10420566;28;20221;-69
2021/12/06 23:16:42;;;;;;;4.93;3.57;;;4.50;99.90;;;;;;10420532;28;20239;-70
2021/12/06 23:21:49;;;;;;;4.30;2.97;;;4.40;99.90;;;;;;10410325;28;20248;-69
2021/12/06 23:26:58;;;;;;;3.30;3.00;;;4.30;99.90;;;;;;10403582;28;20220;-70
2021/12/06 23:31:59;;;;;;;4.63;3.27;;;4.30;99.90;;;;;;10406083;28;20212;-69
2021/12/06 23:37:01;;;;;;;4.47;4.07;;;4.20;99.90;;;;;;10418335;28;20216;-70
2021/12/06 23:47:04;;;;;;;4.93;4.00;;;4.00;99.90;;;;;;10418341;28;20217;-69
2021/12/06 23:52:05;;;;;;;6.63;4.13;;;3.80;99.90;;;;;;10416161;28;20227;-69
2021/12/06 23:57:05;;;;;;;5.27;4.00;;;3.60;99.90;;;;;;10417841;28;20691;-69
